sensor_id;sensor_type;location;lat;lon;timestamp;P1;durP1;ratioP1;P2;durP2;ratioP2
10096;SDS011;5087;42.662;23.466;2022-10-31T00:01:16;1.47;;;1.47;;
10096;SDS011;5087;42.662;23.466;2022-10-31T00:03:47;0.83;;;0.83;;
10096;SDS011;5087;42.662;23.466;2022-10-31T00:06:15;0.90;;;0.90;;
10096;SDS011;5087;42.662;23.466;2022-10-31T00:08:44;0.80;;;0.80;;
10096;SDS011;5087;42.662;23.466;2022-10-31T00:11:11;1.43;;;1.43;;
10096;SDS011;5087;42.662;23.466;2022-10-31T00:13:38;1.20;;;1.20;;
10096;SDS011;5087;42.662;23.466;2022-10-31T00:16:12;1.10;;;1.10;;
10096;SDS011;5087;42.662;23.466;2022-10-31T00:18:41;0.90;;;0.90;;
10096;SDS011;5087;42.662;23.466;2022-10-31T00:21:10;1.10;;;1.10;;
10096;SDS011;5087;42.662;23.466;2022-10-31T00:23:37;1.30;;;1.30;;
10096;SDS011;5087;42.662;23.466;2022-10-31T00:26:05;1.50;;;1.50;;
10096;SDS011;5087;42.662;23.466;2022-10-31T00:28:32;1.40;;;1.40;;
10096;SDS011;5087;42.662;23.466;2022-10-31T00:31:00;1.50;;;1.50;;
10096;SDS011;5087;42.662;23.466;2022-10-31T00:33:27;1.70;;;1.70;;
10096;SDS011;5087;42.662;23.466;2022-10-31T00:35:55;1.87;;;1.87;;
10096;SDS011;5087;42.662;23.466;2022-10-31T00:38:24;1.77;;;1.77;;
10096;SDS011;5087;42.662;23.466;2022-10-31T00:40:52;1.80;;;1.80;;
10096;SDS011;5087;42.662;23.466;2022-10-31T00:43:20;1.90;;;1.90;;
10096;SDS011;5087;42.662;23.466;2022-10-31T00:45:47;1.80;;;1.80;;
10096;SDS011;5087;42.662;23.466;2022-10-31T00:48:15;1.60;;;1.60;;
10096;SDS011;5087;42.662;23.466;2022-10-31T00:50:42;1.40;;;1.40;;
10096;SDS011;5087;42.662;23.466;2022-10-31T00:53:10;1.40;;;1.40;;
10096;SDS011;5087;42.662;23.466;2022-10-31T00:55:39;1.40;;;1.40;;
10096;SDS011;5087;42.662;23.466;2022-10-31T00:58:07;1.40;;;1.40;;
10096;SDS011;5087;42.662;23.466;2022-10-31T01:00:34;1.10;;;1.10;;
10096;SDS011;5087;42.662;23.466;2022-10-31T01:03:02;1.40;;;1.40;;
10096;SDS011;5087;42.662;23.466;2022-10-31T01:05:30;1.10;;;1.10;;
10096;SDS011;5087;42.662;23.466;2022-10-31T01:07:57;1.20;;;1.20;;
10096;SDS011;5087;42.662;23.466;2022-10-31T01:10:26;1.50;;;1.50;;
10096;SDS011;5087;42.662;23.466;2022-10-31T01:12:55;1.50;;;1.50;;
10096;SDS011;5087;42.662;23.466;2022-10-31T01:15:22;1.10;;;1.10;;
10096;SDS011;5087;42.662;23.466;2022-10-31T01:17:49;1.10;;;1.10;;
10096;SDS011;5087;42.662;23.466;2022-10-31T01:20:17;1.20;;;1.20;;
10096;SDS011;5087;42.662;23.466;2022-10-31T01:22:44;1.20;;;1.20;;
10096;SDS011;5087;42.662;23.466;2022-10-31T01:25:11;1.00;;;1.00;;
10096;SDS011;5087;42.662;23.466;2022-10-31T01:27:39;1.20;;;1.20;;
10096;SDS011;5087;42.662;23.466;2022-10-31T01:30:09;0.70;;;0.70;;
10096;SDS011;5087;42.662;23.466;2022-10-31T01:32:37;0.70;;;0.70;;
10096;SDS011;5087;42.662;23.466;2022-10-31T01:35:04;0.70;;;0.70;;
10096;SDS011;5087;42.662;23.466;2022-10-31T01:37:32;0.40;;;0.40;;
10096;SDS011;5087;42.662;23.466;2022-10-31T01:39:59;0.50;;;0.50;;
10096;SDS011;5087;42.662;23.466;2022-10-31T01:42:27;0.57;;;0.57;;
10096;SDS011;5087;42.662;23.466;2022-10-31T01:44:56;0.40;;;0.40;;
10096;SDS011;5087;42.662;23.466;2022-10-31T01:47:37;0.60;;;0.60;;
10096;SDS011;5087;42.662;23.466;2022-10-31T01:50:11;0.60;;;0.60;;
10096;SDS011;5087;42.662;23.466;2022-10-31T01:52:43;0.90;;;0.90;;
10096;SDS011;5087;42.662;23.466;2022-10-31T01:55:15;0.87;;;0.87;;
10096;SDS011;5087;42.662;23.466;2022-10-31T01:57:46;1.10;;;1.10;;
10096;SDS011;5087;42.662;23.466;2022-10-31T02:00:17;1.00;;;1.00;;
10096;SDS011;5087;42.662;23.466;2022-10-31T02:02:49;0.70;;;0.70;;
10096;SDS011;5087;42.662;23.466;2022-10-31T02:05:18;1.00;;;1.00;;
10096;SDS011;5087;42.662;23.466;2022-10-31T02:07:48;1.60;;;1.60;;
10096;SDS011;5087;42.662;23.466;2022-10-31T02:10:26;1.10;;;1.10;;
10096;SDS011;5087;42.662;23.466;2022-10-31T02:12:55;1.20;;;1.20;;
10096;SDS011;5087;42.662;23.466;2022-10-31T02:15:25;1.00;;;1.00;;
10096;SDS011;5087;42.662;23.466;2022-10-31T02:17:55;1.30;;;1.30;;
10096;SDS011;5087;42.662;23.466;2022-10-31T02:20:23;1.40;;;1.40;;
10096;SDS011;5087;42.662;23.466;2022-10-31T02:23:00;1.50;;;1.50;;
10096;SDS011;5087;42.662;23.466;2022-10-31T02:25:56;1.67;;;1.67;;
10096;SDS011;5087;42.662;23.466;2022-10-31T02:28:51;1.40;;;1.40;;
10096;SDS011;5087;42.662;23.466;2022-10-31T02:31:29;1.20;;;1.20;;
10096;SDS011;5087;42.662;23.466;2022-10-31T02:34:05;1.30;;;1.30;;
10096;SDS011;5087;42.662;23.466;2022-10-31T02:36:43;1.07;;;1.07;;
10096;SDS011;5087;42.662;23.466;2022-10-31T02:39:21;1.23;;;1.23;;
10096;SDS011;5087;42.662;23.466;2022-10-31T02:41:52;0.90;;;0.90;;
10096;SDS011;5087;42.662;23.466;2022-10-31T02:44:30;0.90;;;0.90;;
10096;SDS011;5087;42.662;23.466;2022-10-31T02:47:08;0.70;;;0.70;;
10096;SDS011;5087;42.662;23.466;2022-10-31T02:49:43;0.90;;;0.90;;
10096;SDS011;5087;42.662;23.466;2022-10-31T02:52:19;1.00;;;1.00;;
10096;SDS011;5087;42.662;23.466;2022-10-31T02:54:47;0.83;;;0.83;;
10096;SDS011;5087;42.662;23.466;2022-10-31T02:57:15;0.60;;;0.60;;
10096;SDS011;5087;42.662;23.466;2022-10-31T02:59:47;0.80;;;0.80;;
10096;SDS011;5087;42.662;23.466;2022-10-31T03:02:26;1.00;;;1.00;;
10096;SDS011;5087;42.662;23.466;2022-10-31T03:05:11;1.10;;;1.10;;
10096;SDS011;5087;42.662;23.466;2022-10-31T03:07:50;1.20;;;1.20;;
10096;SDS011;5087;42.662;23.466;2022-10-31T03:10:27;1.37;;;1.37;;
10096;SDS011;5087;42.662;23.466;2022-10-31T03:13:02;1.50;;;1.50;;
10096;SDS011;5087;42.662;23.466;2022-10-31T03:15:37;1.40;;;1.40;;
10096;SDS011;5087;42.662;23.466;2022-10-31T03:18:11;1.60;;;1.60;;
10096;SDS011;5087;42.662;23.466;2022-10-31T03:20:44;1.60;;;1.60;;
10096;SDS011;5087;42.662;23.466;2022-10-31T03:23:15;1.60;;;1.60;;
10096;SDS011;5087;42.662;23.466;2022-10-31T03:25:49;1.90;;;1.90;;
10096;SDS011;5087;42.662;23.466;2022-10-31T03:28:24;2.10;;;2.10;;
10096;SDS011;5087;42.662;23.466;2022-10-31T03:30:56;2.80;;;2.70;;
10096;SDS011;5087;42.662;23.466;2022-10-31T03:33:28;2.50;;;2.50;;
10096;SDS011;5087;42.662;23.466;2022-10-31T03:36:00;2.60;;;2.60;;
10096;SDS011;5087;42.662;23.466;2022-10-31T03:38:31;2.50;;;2.50;;
10096;SDS011;5087;42.662;23.466;2022-10-31T03:41:03;2.30;;;2.30;;
10096;SDS011;5087;42.662;23.466;2022-10-31T03:43:32;2.50;;;2.50;;
10096;SDS011;5087;42.662;23.466;2022-10-31T03:46:04;2.40;;;2.40;;
10096;SDS011;5087;42.662;23.466;2022-10-31T03:48:34;3.13;;;2.93;;
10096;SDS011;5087;42.662;23.466;2022-10-31T03:51:04;2.10;;;2.10;;
10096;SDS011;5087;42.662;23.466;2022-10-31T03:53:38;2.20;;;2.20;;
10096;SDS011;5087;42.662;23.466;2022-10-31T03:56:17;2.47;;;2.47;;
10096;SDS011;5087;42.662;23.466;2022-10-31T03:58:52;2.40;;;2.40;;
10096;SDS011;5087;42.662;23.466;2022-10-31T04:01:27;2.60;;;2.60;;
10096;SDS011;5087;42.662;23.466;2022-10-31T04:03:59;2.50;;;2.50;;
10096;SDS011;5087;42.662;23.466;2022-10-31T04:06:28;2.30;;;2.30;;
10096;SDS011;5087;42.662;23.466;2022-10-31T04:08:59;2.40;;;2.40;;
10096;SDS011;5087;42.662;23.466;2022-10-31T04:11:30;2.47;;;2.47;;
10096;SDS011;5087;42.662;23.466;2022-10-31T04:14:35;2.60;;;2.60;;
10096;SDS011;5087;42.662;23.466;2022-10-31T04:17:07;2.80;;;2.80;;
10096;SDS011;5087;42.662;23.466;2022-10-31T04:19:41;3.00;;;3.00;;
10096;SDS011;5087;42.662;23.466;2022-10-31T04:22:09;2.63;;;2.63;;
10096;SDS011;5087;42.662;23.466;2022-10-31T04:24:37;2.60;;;2.60;;
10096;SDS011;5087;42.662;23.466;2022-10-31T04:27:07;2.67;;;2.67;;
10096;SDS011;5087;42.662;23.466;2022-10-31T04:29:34;2.90;;;2.90;;
10096;SDS011;5087;42.662;23.466;2022-10-31T04:32:01;2.70;;;2.70;;
10096;SDS011;5087;42.662;23.466;2022-10-31T04:34:29;2.60;;;2.60;;
10096;SDS011;5087;42.662;23.466;2022-10-31T04:36:57;2.70;;;2.70;;
10096;SDS011;5087;42.662;23.466;2022-10-31T04:39:24;2.80;;;2.80;;
10096;SDS011;5087;42.662;23.466;2022-10-31T04:42:17;2.10;;;2.10;;
10096;SDS011;5087;42.662;23.466;2022-10-31T04:44:45;2.07;;;2.07;;
10096;SDS011;5087;42.662;23.466;2022-10-31T04:47:13;1.60;;;1.60;;
10096;SDS011;5087;42.662;23.466;2022-10-31T04:49:41;1.43;;;1.43;;
10096;SDS011;5087;42.662;23.466;2022-10-31T04:52:11;1.30;;;1.30;;
10096;SDS011;5087;42.662;23.466;2022-10-31T04:54:39;1.10;;;1.10;;
10096;SDS011;5087;42.662;23.466;2022-10-31T04:57:25;1.60;;;1.60;;
10096;SDS011;5087;42.662;23.466;2022-10-31T04:59:54;1.50;;;1.50;;
10096;SDS011;5087;42.662;23.466;2022-10-31T05:02:23;1.50;;;1.50;;
10096;SDS011;5087;42.662;23.466;2022-10-31T05:04:54;1.60;;;1.60;;
10096;SDS011;5087;42.662;23.466;2022-10-31T05:07:23;1.50;;;1.50;;
10096;SDS011;5087;42.662;23.466;2022-10-31T05:09:50;1.30;;;1.30;;
10096;SDS011;5087;42.662;23.466;2022-10-31T05:12:19;1.50;;;1.50;;
10096;SDS011;5087;42.662;23.466;2022-10-31T05:15:05;1.70;;;1.70;;
10096;SDS011;5087;42.662;23.466;2022-10-31T05:17:42;1.70;;;1.70;;
10096;SDS011;5087;42.662;23.466;2022-10-31T05:20:33;1.90;;;1.90;;
10096;SDS011;5087;42.662;23.466;2022-10-31T05:23:23;1.60;;;1.60;;
10096;SDS011;5087;42.662;23.466;2022-10-31T05:25:50;2.00;;;2.00;;
10096;SDS011;5087;42.662;23.466;2022-10-31T05:28:18;2.30;;;2.30;;
10096;SDS011;5087;42.662;23.466;2022-10-31T05:30:46;2.23;;;2.23;;
10096;SDS011;5087;42.662;23.466;2022-10-31T05:33:15;2.30;;;2.30;;
10096;SDS011;5087;42.662;23.466;2022-10-31T05:36:00;2.00;;;2.00;;
10096;SDS011;5087;42.662;23.466;2022-10-31T05:38:40;1.60;;;1.60;;
10096;SDS011;5087;42.662;23.466;2022-10-31T05:41:19;1.70;;;1.70;;
10096;SDS011;5087;42.662;23.466;2022-10-31T05:43:47;1.80;;;1.80;;
10096;SDS011;5087;42.662;23.466;2022-10-31T05:46:16;1.70;;;1.70;;
10096;SDS011;5087;42.662;23.466;2022-10-31T05:49:24;1.90;;;1.90;;
10096;SDS011;5087;42.662;23.466;2022-10-31T05:51:51;1.70;;;1.70;;
10096;SDS011;5087;42.662;23.466;2022-10-31T05:54:23;1.40;;;1.40;;
10096;SDS011;5087;42.662;23.466;2022-10-31T05:56:50;1.30;;;1.30;;
10096;SDS011;5087;42.662;23.466;2022-10-31T05:59:18;1.13;;;1.13;;
10096;SDS011;5087;42.662;23.466;2022-10-31T06:01:48;1.50;;;1.50;;
10096;SDS011;5087;42.662;23.466;2022-10-31T06:04:31;1.70;;;1.70;;
10096;SDS011;5087;42.662;23.466;2022-10-31T06:06:58;1.70;;;1.70;;
10096;SDS011;5087;42.662;23.466;2022-10-31T06:09:28;2.57;;;2.57;;
10096;SDS011;5087;42.662;23.466;2022-10-31T06:11:55;2.57;;;2.57;;
10096;SDS011;5087;42.662;23.466;2022-10-31T06:14:25;2.50;;;2.50;;
10096;SDS011;5087;42.662;23.466;2022-10-31T06:16:54;3.00;;;3.00;;
10096;SDS011;5087;42.662;23.466;2022-10-31T06:19:40;3.00;;;3.00;;
10096;SDS011;5087;42.662;23.466;2022-10-31T06:22:10;3.10;;;3.10;;
10096;SDS011;5087;42.662;23.466;2022-10-31T06:24:39;3.17;;;3.17;;
10096;SDS011;5087;42.662;23.466;2022-10-31T06:27:25;3.60;;;3.60;;
10096;SDS011;5087;42.662;23.466;2022-10-31T06:29:54;3.40;;;3.40;;
10096;SDS011;5087;42.662;23.466;2022-10-31T06:32:28;4.20;;;4.10;;
10096;SDS011;5087;42.662;23.466;2022-10-31T06:34:57;4.30;;;4.20;;
10096;SDS011;5087;42.662;23.466;2022-10-31T06:37:24;4.10;;;4.00;;
10096;SDS011;5087;42.662;23.466;2022-10-31T06:39:59;4.17;;;4.07;;
10096;SDS011;5087;42.662;23.466;2022-10-31T06:42:26;4.23;;;4.13;;
10096;SDS011;5087;42.662;23.466;2022-10-31T06:44:53;3.87;;;3.87;;
10096;SDS011;5087;42.662;23.466;2022-10-31T06:47:50;4.20;;;4.10;;
10096;SDS011;5087;42.662;23.466;2022-10-31T06:50:24;4.30;;;4.20;;
10096;SDS011;5087;42.662;23.466;2022-10-31T06:52:52;3.83;;;3.83;;
10096;SDS011;5087;42.662;23.466;2022-10-31T06:55:21;4.30;;;4.20;;
10096;SDS011;5087;42.662;23.466;2022-10-31T06:57:50;4.60;;;4.50;;
10096;SDS011;5087;42.662;23.466;2022-10-31T07:00:18;4.77;;;4.67;;
10096;SDS011;5087;42.662;23.466;2022-10-31T07:02:55;4.93;;;4.83;;
10096;SDS011;5087;42.662;23.466;2022-10-31T07:05:23;5.00;;;4.90;;
10096;SDS011;5087;42.662;23.466;2022-10-31T07:07:51;5.40;;;5.30;;
10096;SDS011;5087;42.662;23.466;2022-10-31T07:10:23;5.77;;;5.67;;
10096;SDS011;5087;42.662;23.466;2022-10-31T07:13:00;5.30;;;5.20;;
10096;SDS011;5087;42.662;23.466;2022-10-31T07:15:32;5.50;;;5.40;;
10096;SDS011;5087;42.662;23.466;2022-10-31T07:18:01;5.77;;;5.67;;
10096;SDS011;5087;42.662;23.466;2022-10-31T07:20:29;6.30;;;6.20;;
10096;SDS011;5087;42.662;23.466;2022-10-31T07:22:57;5.90;;;5.80;;
10096;SDS011;5087;42.662;23.466;2022-10-31T07:25:28;6.00;;;5.90;;
10096;SDS011;5087;42.662;23.466;2022-10-31T07:28:13;6.00;;;5.90;;
10096;SDS011;5087;42.662;23.466;2022-10-31T07:30:48;5.90;;;5.80;;
10096;SDS011;5087;42.662;23.466;2022-10-31T07:33:21;5.80;;;5.70;;
10096;SDS011;5087;42.662;23.466;2022-10-31T07:36:17;5.80;;;5.70;;
10096;SDS011;5087;42.662;23.466;2022-10-31T07:38:47;6.40;;;6.30;;
10096;SDS011;5087;42.662;23.466;2022-10-31T07:41:17;6.20;;;6.10;;
10096;SDS011;5087;42.662;23.466;2022-10-31T07:43:48;6.97;;;6.77;;
10096;SDS011;5087;42.662;23.466;2022-10-31T07:46:15;6.33;;;6.23;;
10096;SDS011;5087;42.662;23.466;2022-10-31T07:48:58;6.80;;;6.60;;
10096;SDS011;5087;42.662;23.466;2022-10-31T07:52:00;5.90;;;5.80;;
10096;SDS011;5087;42.662;23.466;2022-10-31T07:54:46;6.43;;;6.13;;
10096;SDS011;5087;42.662;23.466;2022-10-31T07:57:22;5.70;;;5.60;;
10096;SDS011;5087;42.662;23.466;2022-10-31T07:59:50;6.10;;;6.00;;
10096;SDS011;5087;42.662;23.466;2022-10-31T08:02:17;5.80;;;5.70;;
10096;SDS011;5087;42.662;23.466;2022-10-31T08:04:46;6.30;;;6.20;;
10096;SDS011;5087;42.662;23.466;2022-10-31T08:07:35;5.93;;;5.83;;
10096;SDS011;5087;42.662;23.466;2022-10-31T08:10:06;5.90;;;5.80;;
10096;SDS011;5087;42.662;23.466;2022-10-31T08:12:35;5.10;;;5.00;;
10096;SDS011;5087;42.662;23.466;2022-10-31T08:15:06;5.40;;;5.30;;
10096;SDS011;5087;42.662;23.466;2022-10-31T08:17:35;5.60;;;5.50;;
10096;SDS011;5087;42.662;23.466;2022-10-31T08:20:03;5.40;;;5.10;;
10096;SDS011;5087;42.662;23.466;2022-10-31T08:22:34;5.10;;;5.00;;
10096;SDS011;5087;42.662;23.466;2022-10-31T08:25:01;5.10;;;5.00;;
10096;SDS011;5087;42.662;23.466;2022-10-31T08:27:28;5.27;;;5.17;;
10096;SDS011;5087;42.662;23.466;2022-10-31T08:30:00;5.00;;;4.90;;
10096;SDS011;5087;42.662;23.466;2022-10-31T08:32:28;4.80;;;4.70;;
10096;SDS011;5087;42.662;23.466;2022-10-31T08:35:31;5.20;;;5.10;;
10096;SDS011;5087;42.662;23.466;2022-10-31T08:38:37;4.60;;;4.50;;
10096;SDS011;5087;42.662;23.466;2022-10-31T08:41:07;4.33;;;4.23;;
10096;SDS011;5087;42.662;23.466;2022-10-31T08:43:35;4.70;;;4.60;;
10096;SDS011;5087;42.662;23.466;2022-10-31T08:46:04;4.80;;;4.70;;
10096;SDS011;5087;42.662;23.466;2022-10-31T08:48:32;3.90;;;3.90;;
10096;SDS011;5087;42.662;23.466;2022-10-31T08:51:01;5.00;;;4.90;;
10096;SDS011;5087;42.662;23.466;2022-10-31T08:53:29;4.77;;;4.67;;
10096;SDS011;5087;42.662;23.466;2022-10-31T08:56:15;3.87;;;3.87;;
10096;SDS011;5087;42.662;23.466;2022-10-31T08:58:42;3.90;;;3.90;;
10096;SDS011;5087;42.662;23.466;2022-10-31T09:01:11;4.10;;;4.00;;
10096;SDS011;5087;42.662;23.466;2022-10-31T09:03:38;4.60;;;4.50;;
10096;SDS011;5087;42.662;23.466;2022-10-31T09:06:06;5.20;;;5.10;;
10096;SDS011;5087;42.662;23.466;2022-10-31T09:08:34;4.77;;;4.67;;
10096;SDS011;5087;42.662;23.466;2022-10-31T09:11:02;4.10;;;4.00;;
10096;SDS011;5087;42.662;23.466;2022-10-31T09:14:10;4.20;;;4.10;;
10096;SDS011;5087;42.662;23.466;2022-10-31T09:17:14;4.10;;;4.00;;
10096;SDS011;5087;42.662;23.466;2022-10-31T09:20:01;3.80;;;3.80;;
10096;SDS011;5087;42.662;23.466;2022-10-31T09:22:31;3.80;;;3.80;;
10096;SDS011;5087;42.662;23.466;2022-10-31T09:24:58;3.77;;;3.73;;
10096;SDS011;5087;42.662;23.466;2022-10-31T09:27:26;3.60;;;3.60;;
10096;SDS011;5087;42.662;23.466;2022-10-31T09:29:56;4.77;;;4.63;;
10096;SDS011;5087;42.662;23.466;2022-10-31T09:32:27;5.10;;;4.80;;
10096;SDS011;5087;42.662;23.466;2022-10-31T09:34:55;3.90;;;3.90;;
10096;SDS011;5087;42.662;23.466;2022-10-31T09:37:23;3.50;;;3.50;;
10096;SDS011;5087;42.662;23.466;2022-10-31T09:39:50;3.90;;;3.90;;
10096;SDS011;5087;42.662;23.466;2022-10-31T09:42:34;4.10;;;4.00;;
10096;SDS011;5087;42.662;23.466;2022-10-31T09:45:23;3.63;;;3.63;;
10096;SDS011;5087;42.662;23.466;2022-10-31T09:48:05;3.33;;;3.33;;
10096;SDS011;5087;42.662;23.466;2022-10-31T09:51:00;3.30;;;3.30;;
10096;SDS011;5087;42.662;23.466;2022-10-31T09:53:48;3.40;;;3.40;;
10096;SDS011;5087;42.662;23.466;2022-10-31T09:56:22;3.97;;;3.93;;
10096;SDS011;5087;42.662;23.466;2022-10-31T09:58:56;4.10;;;4.00;;
10096;SDS011;5087;42.662;23.466;2022-10-31T10:01:29;4.00;;;3.90;;
10096;SDS011;5087;42.662;23.466;2022-10-31T10:04:14;3.80;;;3.80;;
10096;SDS011;5087;42.662;23.466;2022-10-31T10:07:06;3.20;;;3.20;;
10096;SDS011;5087;42.662;23.466;2022-10-31T10:09:42;3.30;;;3.30;;
10096;SDS011;5087;42.662;23.466;2022-10-31T10:12:41;3.00;;;3.00;;
10096;SDS011;5087;42.662;23.466;2022-10-31T10:15:27;3.10;;;3.10;;
10096;SDS011;5087;42.662;23.466;2022-10-31T10:18:05;3.27;;;3.27;;
10096;SDS011;5087;42.662;23.466;2022-10-31T10:20:44;3.70;;;3.60;;
10096;SDS011;5087;42.662;23.466;2022-10-31T10:23:32;3.77;;;3.67;;
10096;SDS011;5087;42.662;23.466;2022-10-31T10:26:22;2.80;;;2.80;;
10096;SDS011;5087;42.662;23.466;2022-10-31T10:28:57;2.70;;;2.70;;
10096;SDS011;5087;42.662;23.466;2022-10-31T10:31:28;2.73;;;2.73;;
10096;SDS011;5087;42.662;23.466;2022-10-31T10:34:02;2.70;;;2.70;;
10096;SDS011;5087;42.662;23.466;2022-10-31T10:36:40;2.50;;;2.50;;
10096;SDS011;5087;42.662;23.466;2022-10-31T10:39:11;2.50;;;2.50;;
10096;SDS011;5087;42.662;23.466;2022-10-31T10:41:44;2.30;;;2.30;;
10096;SDS011;5087;42.662;23.466;2022-10-31T10:44:28;2.30;;;2.30;;
10096;SDS011;5087;42.662;23.466;2022-10-31T10:47:12;2.30;;;2.30;;
10096;SDS011;5087;42.662;23.466;2022-10-31T10:49:57;2.33;;;2.33;;
10096;SDS011;5087;42.662;23.466;2022-10-31T10:52:28;2.10;;;2.10;;
10096;SDS011;5087;42.662;23.466;2022-10-31T10:55:03;2.20;;;2.20;;
10096;SDS011;5087;42.662;23.466;2022-10-31T10:57:42;2.20;;;2.20;;
10096;SDS011;5087;42.662;23.466;2022-10-31T11:00:20;2.03;;;2.03;;
10096;SDS011;5087;42.662;23.466;2022-10-31T11:02:49;1.97;;;1.97;;
10096;SDS011;5087;42.662;23.466;2022-10-31T11:05:26;2.00;;;2.00;;
10096;SDS011;5087;42.662;23.466;2022-10-31T11:08:01;2.13;;;2.13;;
10096;SDS011;5087;42.662;23.466;2022-10-31T11:10:29;2.10;;;2.10;;
10096;SDS011;5087;42.662;23.466;2022-10-31T11:12:58;2.03;;;2.03;;
10096;SDS011;5087;42.662;23.466;2022-10-31T11:15:31;2.20;;;2.20;;
10096;SDS011;5087;42.662;23.466;2022-10-31T11:18:04;1.90;;;1.90;;
10096;SDS011;5087;42.662;23.466;2022-10-31T11:20:33;2.20;;;2.20;;
10096;SDS011;5087;42.662;23.466;2022-10-31T11:23:04;2.20;;;2.20;;
10096;SDS011;5087;42.662;23.466;2022-10-31T11:25:47;2.10;;;2.10;;
10096;SDS011;5087;42.662;23.466;2022-10-31T11:28:16;2.20;;;2.20;;
10096;SDS011;5087;42.662;23.466;2022-10-31T11:30:44;2.20;;;2.20;;
10096;SDS011;5087;42.662;23.466;2022-10-31T11:33:17;2.07;;;2.07;;
10096;SDS011;5087;42.662;23.466;2022-10-31T11:35:48;2.40;;;2.40;;
10096;SDS011;5087;42.662;23.466;2022-10-31T11:38:18;2.20;;;2.20;;
10096;SDS011;5087;42.662;23.466;2022-10-31T11:40:54;1.80;;;1.80;;
10096;SDS011;5087;42.662;23.466;2022-10-31T11:43:24;2.03;;;2.03;;
10096;SDS011;5087;42.662;23.466;2022-10-31T11:45:52;2.03;;;2.03;;
10096;SDS011;5087;42.662;23.466;2022-10-31T11:48:20;2.17;;;2.17;;
10096;SDS011;5087;42.662;23.466;2022-10-31T11:50:50;1.90;;;1.90;;
10096;SDS011;5087;42.662;23.466;2022-10-31T11:53:24;2.70;;;2.70;;
10096;SDS011;5087;42.662;23.466;2022-10-31T11:56:04;2.10;;;2.10;;
10096;SDS011;5087;42.662;23.466;2022-10-31T11:58:37;1.93;;;1.93;;
10096;SDS011;5087;42.662;23.466;2022-10-31T12:01:04;1.90;;;1.90;;
10096;SDS011;5087;42.662;23.466;2022-10-31T12:03:38;2.10;;;2.10;;
10096;SDS011;5087;42.662;23.466;2022-10-31T12:06:16;2.20;;;2.20;;
10096;SDS011;5087;42.662;23.466;2022-10-31T12:08:52;2.13;;;2.13;;
10096;SDS011;5087;42.662;23.466;2022-10-31T12:11:32;2.00;;;2.00;;
10096;SDS011;5087;42.662;23.466;2022-10-31T12:14:23;2.10;;;2.10;;
10096;SDS011;5087;42.662;23.466;2022-10-31T12:17:00;2.00;;;2.00;;
10096;SDS011;5087;42.662;23.466;2022-10-31T12:19:35;2.00;;;2.00;;
10096;SDS011;5087;42.662;23.466;2022-10-31T12:22:08;1.90;;;1.90;;
10096;SDS011;5087;42.662;23.466;2022-10-31T12:24:58;2.10;;;2.10;;
10096;SDS011;5087;42.662;23.466;2022-10-31T12:27:46;2.30;;;2.30;;
10096;SDS011;5087;42.662;23.466;2022-10-31T12:30:26;2.50;;;2.50;;
10096;SDS011;5087;42.662;23.466;2022-10-31T12:33:09;7.73;;;4.43;;
10096;SDS011;5087;42.662;23.466;2022-10-31T12:35:57;1.90;;;1.90;;
10096;SDS011;5087;42.662;23.466;2022-10-31T12:38:47;1.90;;;1.90;;
10096;SDS011;5087;42.662;23.466;2022-10-31T12:41:32;2.10;;;2.10;;
10096;SDS011;5087;42.662;23.466;2022-10-31T12:44:12;2.20;;;2.20;;
10096;SDS011;5087;42.662;23.466;2022-10-31T12:46:53;2.40;;;2.40;;
10096;SDS011;5087;42.662;23.466;2022-10-31T12:49:34;4.33;;;4.00;;
10096;SDS011;5087;42.662;23.466;2022-10-31T12:52:16;2.10;;;2.10;;
10096;SDS011;5087;42.662;23.466;2022-10-31T12:55:00;2.00;;;2.00;;
10096;SDS011;5087;42.662;23.466;2022-10-31T12:57:38;2.30;;;2.30;;
10096;SDS011;5087;42.662;23.466;2022-10-31T13:00:10;2.20;;;2.20;;
10096;SDS011;5087;42.662;23.466;2022-10-31T13:02:42;2.10;;;2.10;;
10096;SDS011;5087;42.662;23.466;2022-10-31T13:05:16;2.00;;;2.00;;
10096;SDS011;5087;42.662;23.466;2022-10-31T13:07:48;1.80;;;1.80;;
10096;SDS011;5087;42.662;23.466;2022-10-31T13:10:22;1.80;;;1.80;;
10096;SDS011;5087;42.662;23.466;2022-10-31T13:12:57;1.90;;;1.90;;
10096;SDS011;5087;42.662;23.466;2022-10-31T13:15:31;1.90;;;1.90;;
10096;SDS011;5087;42.662;23.466;2022-10-31T13:18:04;2.00;;;2.00;;
10096;SDS011;5087;42.662;23.466;2022-10-31T13:20:38;2.00;;;2.00;;
10096;SDS011;5087;42.662;23.466;2022-10-31T13:23:10;2.13;;;2.13;;
10096;SDS011;5087;42.662;23.466;2022-10-31T13:25:44;2.20;;;2.20;;
10096;SDS011;5087;42.662;23.466;2022-10-31T13:28:21;2.20;;;2.20;;
10096;SDS011;5087;42.662;23.466;2022-10-31T13:30:55;2.20;;;2.20;;
10096;SDS011;5087;42.662;23.466;2022-10-31T13:33:24;2.07;;;2.07;;
10096;SDS011;5087;42.662;23.466;2022-10-31T13:36:06;2.00;;;2.00;;
10096;SDS011;5087;42.662;23.466;2022-10-31T13:38:45;2.40;;;2.40;;
10096;SDS011;5087;42.662;23.466;2022-10-31T13:41:21;2.20;;;2.20;;
10096;SDS011;5087;42.662;23.466;2022-10-31T13:44:01;2.40;;;2.40;;
10096;SDS011;5087;42.662;23.466;2022-10-31T13:46:36;2.43;;;2.43;;
10096;SDS011;5087;42.662;23.466;2022-10-31T13:49:19;2.50;;;2.50;;
10096;SDS011;5087;42.662;23.466;2022-10-31T13:51:50;2.20;;;2.20;;
10096;SDS011;5087;42.662;23.466;2022-10-31T13:54:22;2.20;;;2.20;;
10096;SDS011;5087;42.662;23.466;2022-10-31T13:56:57;2.27;;;2.27;;
10096;SDS011;5087;42.662;23.466;2022-10-31T13:59:27;2.70;;;2.70;;
10096;SDS011;5087;42.662;23.466;2022-10-31T14:01:58;2.30;;;2.30;;
10096;SDS011;5087;42.662;23.466;2022-10-31T14:04:28;2.40;;;2.40;;
10096;SDS011;5087;42.662;23.466;2022-10-31T14:07:05;2.60;;;2.60;;
10096;SDS011;5087;42.662;23.466;2022-10-31T14:09:35;2.90;;;2.80;;
10096;SDS011;5087;42.662;23.466;2022-10-31T14:12:06;2.40;;;2.40;;
10096;SDS011;5087;42.662;23.466;2022-10-31T14:14:47;2.30;;;2.30;;
10096;SDS011;5087;42.662;23.466;2022-10-31T14:17:17;2.40;;;2.40;;
10096;SDS011;5087;42.662;23.466;2022-10-31T14:22:46;1.90;;;1.90;;
10096;SDS011;5087;42.662;23.466;2022-10-31T14:25:26;2.00;;;2.00;;
10096;SDS011;5087;42.662;23.466;2022-10-31T14:27:56;1.97;;;1.97;;
10096;SDS011;5087;42.662;23.466;2022-10-31T14:30:26;2.10;;;2.10;;
10096;SDS011;5087;42.662;23.466;2022-10-31T14:32:56;1.90;;;1.90;;
10096;SDS011;5087;42.662;23.466;2022-10-31T14:35:28;1.80;;;1.80;;
10096;SDS011;5087;42.662;23.466;2022-10-31T14:38:26;1.73;;;1.73;;
10096;SDS011;5087;42.662;23.466;2022-10-31T14:41:18;1.90;;;1.90;;
10096;SDS011;5087;42.662;23.466;2022-10-31T14:44:09;2.20;;;2.20;;
10096;SDS011;5087;42.662;23.466;2022-10-31T14:46:57;2.00;;;2.00;;
10096;SDS011;5087;42.662;23.466;2022-10-31T14:49:38;4.20;;;4.10;;
10096;SDS011;5087;42.662;23.466;2022-10-31T14:52:16;2.27;;;2.27;;
10096;SDS011;5087;42.662;23.466;2022-10-31T14:54:48;2.40;;;2.40;;
10096;SDS011;5087;42.662;23.466;2022-10-31T14:57:22;2.83;;;2.83;;
10096;SDS011;5087;42.662;23.466;2022-10-31T14:59:53;2.37;;;2.37;;
10096;SDS011;5087;42.662;23.466;2022-10-31T15:02:25;2.40;;;2.40;;
10096;SDS011;5087;42.662;23.466;2022-10-31T15:04:57;2.40;;;2.40;;
10096;SDS011;5087;42.662;23.466;2022-10-31T15:07:26;2.57;;;2.57;;
10096;SDS011;5087;42.662;23.466;2022-10-31T15:09:57;2.50;;;2.50;;
10096;SDS011;5087;42.662;23.466;2022-10-31T15:12:26;2.50;;;2.50;;
10096;SDS011;5087;42.662;23.466;2022-10-31T15:14:55;2.37;;;2.37;;
10096;SDS011;5087;42.662;23.466;2022-10-31T15:17:25;3.10;;;3.00;;
10096;SDS011;5087;42.662;23.466;2022-10-31T15:19:52;2.43;;;2.43;;
10096;SDS011;5087;42.662;23.466;2022-10-31T15:22:22;2.40;;;2.40;;
10096;SDS011;5087;42.662;23.466;2022-10-31T15:24:52;2.40;;;2.40;;
10096;SDS011;5087;42.662;23.466;2022-10-31T15:27:21;3.30;;;3.30;;
10096;SDS011;5087;42.662;23.466;2022-10-31T15:29:50;2.90;;;2.90;;
10096;SDS011;5087;42.662;23.466;2022-10-31T15:32:19;2.60;;;2.60;;